Terminal Aerodrome Forecast
Issued by NWS

Home | Current Version | Previous Version | Text Only | Print | Product List | Glossary On
Versions: 1 2 3 4 5 6 7 8 9 10 11 12 13 14 15 16 17 18 19 20 21 22
000
FTUS46 KSEW 191100
TAFOLM
TAF
KOLM 191120Z 1912/2012 19005KT P6SM BKN060 OVC100
      TEMPO 1914/1918 BKN025 OVC060
     FM192200 23006KT P6SM SCT050 BKN100
     FM200000 34005KT P6SM SCT060 SCT120=

USA.gov is the U.S. government's official web portal to all federal, state and local government web resources and services.